In Rescue
 
Open Full Screen Window  High Contrast Mode
Wind Gusting 15 knots
10
November 14, 2019 1:29 PM CST
Weather Information
Wind Direction
  230 °
Wind Speed
  10 kt (12 mph)
Wind Gust
  15 kt (17 mph)
Altimeter
30.16 in
Visibility
10 SM
Temperature
-03° C
27° F
Dewpoint
-10° C
14° F
Humidity
59%
1hr Rain Fall
00.00 in.
24hr Rain Fall
00.00 in.
Sky Condition
Broken @ 5,500 ft
VFR

METAR KJMR 141929Z AUTO 23010G15KT 10SM BKN055 M03/M10 A3016 RMK AO2

FAA Disclaimer: The data displayed is for advisory purposes only and is not to be used for flight planning or operations.